sensor_id;sensor_type;location;lat;lon;timestamp;P1;P2;P0
60266;PMS5003;46125;61.360;-149.532;2023-08-06T00:00:25;8;8;
60266;PMS5003;46125;61.360;-149.532;2023-08-06T00:02:54;11;11;
60266;PMS5003;46125;61.360;-149.532;2023-08-06T00:05:22;8;8;
60266;PMS5003;46125;61.360;-149.532;2023-08-06T00:07:51;10;9;
60266;PMS5003;46125;61.360;-149.532;2023-08-06T00:10:19;12;10;
60266;PMS5003;46125;61.360;-149.532;2023-08-06T00:12:48;10;9;
60266;PMS5003;46125;61.360;-149.532;2023-08-06T00:15:17;11;11;
60266;PMS5003;46125;61.360;-149.532;2023-08-06T00:17:46;11;10;
60266;PMS5003;46125;61.360;-149.532;2023-08-06T00:20:14;11;11;
60266;PMS5003;46125;61.360;-149.532;2023-08-06T00:22:43;12;11;
60266;PMS5003;46125;61.360;-149.532;2023-08-06T00:25:11;11;9;
60266;PMS5003;46125;61.360;-149.532;2023-08-06T00:27:40;10;10;
60266;PMS5003;46125;61.360;-149.532;2023-08-06T00:30:08;10;9;
60266;PMS5003;46125;61.360;-149.532;2023-08-06T00:32:37;10;9;
60266;PMS5003;46125;61.360;-149.532;2023-08-06T00:35:06;10;10;
60266;PMS5003;46125;61.360;-149.532;2023-08-06T00:37:35;8;8;
60266;PMS5003;46125;61.360;-149.532;2023-08-06T00:40:03;14;13;
60266;PMS5003;46125;61.360;-149.532;2023-08-06T00:42:33;11;9;
60266;PMS5003;46125;61.360;-149.532;2023-08-06T00:45:01;12;12;
60266;PMS5003;46125;61.360;-149.532;2023-08-06T00:47:30;11;9;
60266;PMS5003;46125;61.360;-149.532;2023-08-06T00:49:59;9;8;
60266;PMS5003;46125;61.360;-149.532;2023-08-06T00:52:27;8;7;
60266;PMS5003;46125;61.360;-149.532;2023-08-06T00:54:56;10;10;
60266;PMS5003;46125;61.360;-149.532;2023-08-06T00:57:24;11;10;
60266;PMS5003;46125;61.360;-149.532;2023-08-06T00:59:53;10;10;
60266;PMS5003;46125;61.360;-149.532;2023-08-06T01:02:22;13;11;
60266;PMS5003;46125;61.360;-149.532;2023-08-06T01:04:50;9;9;
60266;PMS5003;46125;61.360;-149.532;2023-08-06T01:07:21;12;11;
60266;PMS5003;46125;61.360;-149.532;2023-08-06T01:10:05;12;11;
60266;PMS5003;46125;61.360;-149.532;2023-08-06T01:12:48;14;12;
60266;PMS5003;46125;61.360;-149.532;2023-08-06T01:15:26;15;9;
60266;PMS5003;46125;61.360;-149.532;2023-08-06T01:18:05;14;11;
60266;PMS5003;46125;61.360;-149.532;2023-08-06T01:20:35;12;12;
60266;PMS5003;46125;61.360;-149.532;2023-08-06T01:23:03;10;10;
60266;PMS5003;46125;61.360;-149.532;2023-08-06T01:25:33;10;8;
60266;PMS5003;46125;61.360;-149.532;2023-08-06T01:28:17;12;11;
60266;PMS5003;46125;61.360;-149.532;2023-08-06T01:30:51;9;9;
60266;PMS5003;46125;61.360;-149.532;2023-08-06T01:33:22;10;8;
60266;PMS5003;46125;61.360;-149.532;2023-08-06T01:35:51;11;11;
60266;PMS5003;46125;61.360;-149.532;2023-08-06T01:38:21;10;10;
60266;PMS5003;46125;61.360;-149.532;2023-08-06T01:40:49;8;8;
60266;PMS5003;46125;61.360;-149.532;2023-08-06T01:43:18;13;10;
60266;PMS5003;46125;61.360;-149.532;2023-08-06T01:45:46;13;11;
60266;PMS5003;46125;61.360;-149.532;2023-08-06T01:48:15;14;12;
60266;PMS5003;46125;61.360;-149.532;2023-08-06T01:50:43;13;10;
60266;PMS5003;46125;61.360;-149.532;2023-08-06T01:53:12;12;11;
60266;PMS5003;46125;61.360;-149.532;2023-08-06T01:55:40;9;7;
60266;PMS5003;46125;61.360;-149.532;2023-08-06T01:58:08;10;10;
60266;PMS5003;46125;61.360;-149.532;2023-08-06T02:00:37;13;11;
60266;PMS5003;46125;61.360;-149.532;2023-08-06T02:03:05;10;9;
60266;PMS5003;46125;61.360;-149.532;2023-08-06T02:05:33;12;10;
60266;PMS5003;46125;61.360;-149.532;2023-08-06T02:08:02;14;10;
60266;PMS5003;46125;61.360;-149.532;2023-08-06T02:10:30;10;10;
60266;PMS5003;46125;61.360;-149.532;2023-08-06T02:12:59;15;13;
60266;PMS5003;46125;61.360;-149.532;2023-08-06T02:15:27;16;11;
60266;PMS5003;46125;61.360;-149.532;2023-08-06T02:17:55;9;9;
60266;PMS5003;46125;61.360;-149.532;2023-08-06T02:20:24;10;8;
60266;PMS5003;46125;61.360;-149.532;2023-08-06T02:22:53;10;10;
60266;PMS5003;46125;61.360;-149.532;2023-08-06T02:25:22;10;9;
60266;PMS5003;46125;61.360;-149.532;2023-08-06T02:27:50;11;11;
60266;PMS5003;46125;61.360;-149.532;2023-08-06T02:30:19;15;12;
60266;PMS5003;46125;61.360;-149.532;2023-08-06T02:32:47;13;12;
60266;PMS5003;46125;61.360;-149.532;2023-08-06T02:35:16;12;11;
60266;PMS5003;46125;61.360;-149.532;2023-08-06T02:37:44;14;13;
60266;PMS5003;46125;61.360;-149.532;2023-08-06T02:40:12;11;9;
60266;PMS5003;46125;61.360;-149.532;2023-08-06T02:42:41;12;12;
60266;PMS5003;46125;61.360;-149.532;2023-08-06T02:45:09;11;11;
60266;PMS5003;46125;61.360;-149.532;2023-08-06T02:47:37;15;13;
60266;PMS5003;46125;61.360;-149.532;2023-08-06T02:50:06;12;12;
60266;PMS5003;46125;61.360;-149.532;2023-08-06T02:52:35;12;10;
60266;PMS5003;46125;61.360;-149.532;2023-08-06T02:55:03;11;10;
60266;PMS5003;46125;61.360;-149.532;2023-08-06T02:57:32;13;12;
60266;PMS5003;46125;61.360;-149.532;2023-08-06T03:00:01;13;11;
60266;PMS5003;46125;61.360;-149.532;2023-08-06T03:02:29;15;13;
60266;PMS5003;46125;61.360;-149.532;2023-08-06T03:04:58;12;11;
60266;PMS5003;46125;61.360;-149.532;2023-08-06T03:07:26;17;15;
60266;PMS5003;46125;61.360;-149.532;2023-08-06T03:09:55;13;12;
60266;PMS5003;46125;61.360;-149.532;2023-08-06T03:12:23;13;12;
60266;PMS5003;46125;61.360;-149.532;2023-08-06T03:14:51;11;11;
60266;PMS5003;46125;61.360;-149.532;2023-08-06T03:17:20;23;20;
60266;PMS5003;46125;61.360;-149.532;2023-08-06T03:19:48;21;17;
60266;PMS5003;46125;61.360;-149.532;2023-08-06T03:22:17;16;13;
60266;PMS5003;46125;61.360;-149.532;2023-08-06T03:24:46;21;20;
60266;PMS5003;46125;61.360;-149.532;2023-08-06T03:27:17;16;15;
60266;PMS5003;46125;61.360;-149.532;2023-08-06T03:29:45;18;16;
60266;PMS5003;46125;61.360;-149.532;2023-08-06T03:32:15;13;11;
60266;PMS5003;46125;61.360;-149.532;2023-08-06T03:34:44;16;12;
60266;PMS5003;46125;61.360;-149.532;2023-08-06T03:37:12;12;12;
60266;PMS5003;46125;61.360;-149.532;2023-08-06T03:39:41;17;13;
60266;PMS5003;46125;61.360;-149.532;2023-08-06T03:42:09;15;12;
60266;PMS5003;46125;61.360;-149.532;2023-08-06T03:44:38;15;15;
60266;PMS5003;46125;61.360;-149.532;2023-08-06T03:47:06;18;18;
60266;PMS5003;46125;61.360;-149.532;2023-08-06T03:49:34;17;17;
60266;PMS5003;46125;61.360;-149.532;2023-08-06T03:52:02;13;13;
60266;PMS5003;46125;61.360;-149.532;2023-08-06T03:54:31;13;12;
60266;PMS5003;46125;61.360;-149.532;2023-08-06T03:56:59;14;11;
60266;PMS5003;46125;61.360;-149.532;2023-08-06T03:59:28;11;10;
60266;PMS5003;46125;61.360;-149.532;2023-08-06T04:01:56;14;13;
60266;PMS5003;46125;61.360;-149.532;2023-08-06T04:04:24;20;20;
60266;PMS5003;46125;61.360;-149.532;2023-08-06T04:06:53;13;12;
60266;PMS5003;46125;61.360;-149.532;2023-08-06T04:09:21;16;16;
60266;PMS5003;46125;61.360;-149.532;2023-08-06T04:11:55;17;17;
60266;PMS5003;46125;61.360;-149.532;2023-08-06T04:14:24;39;35;
60266;PMS5003;46125;61.360;-149.532;2023-08-06T04:16:55;34;32;
60266;PMS5003;46125;61.360;-149.532;2023-08-06T04:19:24;39;38;
60266;PMS5003;46125;61.360;-149.532;2023-08-06T04:21:52;28;28;
60266;PMS5003;46125;61.360;-149.532;2023-08-06T04:24:30;14;13;
60266;PMS5003;46125;61.360;-149.532;2023-08-06T04:26:58;21;18;
60266;PMS5003;46125;61.360;-149.532;2023-08-06T04:29:26;15;14;
60266;PMS5003;46125;61.360;-149.532;2023-08-06T04:31:55;13;12;
60266;PMS5003;46125;61.360;-149.532;2023-08-06T04:34:24;13;12;
60266;PMS5003;46125;61.360;-149.532;2023-08-06T04:36:52;28;23;
60266;PMS5003;46125;61.360;-149.532;2023-08-06T04:39:20;27;24;
60266;PMS5003;46125;61.360;-149.532;2023-08-06T04:41:48;13;12;
60266;PMS5003;46125;61.360;-149.532;2023-08-06T04:44:23;14;14;
60266;PMS5003;46125;61.360;-149.532;2023-08-06T04:46:51;13;12;
60266;PMS5003;46125;61.360;-149.532;2023-08-06T04:49:20;17;17;
60266;PMS5003;46125;61.360;-149.532;2023-08-06T04:51:49;21;20;
60266;PMS5003;46125;61.360;-149.532;2023-08-06T04:54:17;17;15;
60266;PMS5003;46125;61.360;-149.532;2023-08-06T04:56:46;19;18;
60266;PMS5003;46125;61.360;-149.532;2023-08-06T04:59:14;14;13;
60266;PMS5003;46125;61.360;-149.532;2023-08-06T05:01:43;29;24;
60266;PMS5003;46125;61.360;-149.532;2023-08-06T05:04:12;28;25;
60266;PMS5003;46125;61.360;-149.532;2023-08-06T05:06:40;13;13;
60266;PMS5003;46125;61.360;-149.532;2023-08-06T05:09:09;20;18;
60266;PMS5003;46125;61.360;-149.532;2023-08-06T05:11:43;11;9;
60266;PMS5003;46125;61.360;-149.532;2023-08-06T05:14:11;11;10;
60266;PMS5003;46125;61.360;-149.532;2023-08-06T05:16:39;32;28;
60266;PMS5003;46125;61.360;-149.532;2023-08-06T05:19:08;54;51;
60266;PMS5003;46125;61.360;-149.532;2023-08-06T05:21:37;73;66;
60266;PMS5003;46125;61.360;-149.532;2023-08-06T05:24:10;35;35;
60266;PMS5003;46125;61.360;-149.532;2023-08-06T05:26:38;11;11;
60266;PMS5003;46125;61.360;-149.532;2023-08-06T05:29:07;14;13;
60266;PMS5003;46125;61.360;-149.532;2023-08-06T05:31:35;10;10;
60266;PMS5003;46125;61.360;-149.532;2023-08-06T05:34:09;13;12;
60266;PMS5003;46125;61.360;-149.532;2023-08-06T05:36:37;12;12;
60266;PMS5003;46125;61.360;-149.532;2023-08-06T05:39:10;11;10;
60266;PMS5003;46125;61.360;-149.532;2023-08-06T05:41:39;8;8;
60266;PMS5003;46125;61.360;-149.532;2023-08-06T05:44:13;10;9;
60266;PMS5003;46125;61.360;-149.532;2023-08-06T05:46:46;12;10;
60266;PMS5003;46125;61.360;-149.532;2023-08-06T05:49:16;11;9;
60266;PMS5003;46125;61.360;-149.532;2023-08-06T05:51:44;12;10;
60266;PMS5003;46125;61.360;-149.532;2023-08-06T05:54:12;11;9;
60266;PMS5003;46125;61.360;-149.532;2023-08-06T05:56:41;11;9;
60266;PMS5003;46125;61.360;-149.532;2023-08-06T05:59:10;10;10;
60266;PMS5003;46125;61.360;-149.532;2023-08-06T06:01:38;9;9;
60266;PMS5003;46125;61.360;-149.532;2023-08-06T06:04:07;15;13;
60266;PMS5003;46125;61.360;-149.532;2023-08-06T06:06:36;10;8;
60266;PMS5003;46125;61.360;-149.532;2023-08-06T06:09:05;10;9;
60266;PMS5003;46125;61.360;-149.532;2023-08-06T06:11:33;11;9;
60266;PMS5003;46125;61.360;-149.532;2023-08-06T06:14:01;12;12;
60266;PMS5003;46125;61.360;-149.532;2023-08-06T06:16:35;13;9;
60266;PMS5003;46125;61.360;-149.532;2023-08-06T06:19:04;10;10;
60266;PMS5003;46125;61.360;-149.532;2023-08-06T06:21:32;9;7;
60266;PMS5003;46125;61.360;-149.532;2023-08-06T06:24:00;10;8;
60266;PMS5003;46125;61.360;-149.532;2023-08-06T06:26:29;10;9;
60266;PMS5003;46125;61.360;-149.532;2023-08-06T06:28:58;8;7;
60266;PMS5003;46125;61.360;-149.532;2023-08-06T06:31:26;13;11;
60266;PMS5003;46125;61.360;-149.532;2023-08-06T06:33:54;20;14;
60266;PMS5003;46125;61.360;-149.532;2023-08-06T06:36:33;14;9;
60266;PMS5003;46125;61.360;-149.532;2023-08-06T06:39:02;14;12;
60266;PMS5003;46125;61.360;-149.532;2023-08-06T06:41:30;11;11;
60266;PMS5003;46125;61.360;-149.532;2023-08-06T06:43:58;10;10;
60266;PMS5003;46125;61.360;-149.532;2023-08-06T06:46:27;15;13;
60266;PMS5003;46125;61.360;-149.532;2023-08-06T06:48:55;47;43;
60266;PMS5003;46125;61.360;-149.532;2023-08-06T06:51:24;39;35;
60266;PMS5003;46125;61.360;-149.532;2023-08-06T06:53:52;62;58;
60266;PMS5003;46125;61.360;-149.532;2023-08-06T06:56:21;26;24;
60266;PMS5003;46125;61.360;-149.532;2023-08-06T06:58:50;13;12;
60266;PMS5003;46125;61.360;-149.532;2023-08-06T07:01:20;13;11;
60266;PMS5003;46125;61.360;-149.532;2023-08-06T07:03:48;16;12;
60266;PMS5003;46125;61.360;-149.532;2023-08-06T07:06:21;12;11;
60266;PMS5003;46125;61.360;-149.532;2023-08-06T07:08:51;14;12;
60266;PMS5003;46125;61.360;-149.532;2023-08-06T07:11:21;13;13;
60266;PMS5003;46125;61.360;-149.532;2023-08-06T07:13:55;13;11;
60266;PMS5003;46125;61.360;-149.532;2023-08-06T07:16:25;15;11;
60266;PMS5003;46125;61.360;-149.532;2023-08-06T07:18:54;11;11;
60266;PMS5003;46125;61.360;-149.532;2023-08-06T07:21:25;11;10;
60266;PMS5003;46125;61.360;-149.532;2023-08-06T07:23:54;6;4;
60266;PMS5003;46125;61.360;-149.532;2023-08-06T07:26:23;11;9;
60266;PMS5003;46125;61.360;-149.532;2023-08-06T07:28:52;12;7;
60266;PMS5003;46125;61.360;-149.532;2023-08-06T07:31:21;9;8;
60266;PMS5003;46125;61.360;-149.532;2023-08-06T07:33:50;7;7;
60266;PMS5003;46125;61.360;-149.532;2023-08-06T07:36:18;9;9;
60266;PMS5003;46125;61.360;-149.532;2023-08-06T07:38:47;9;8;
60266;PMS5003;46125;61.360;-149.532;2023-08-06T07:41:16;14;9;
60266;PMS5003;46125;61.360;-149.532;2023-08-06T07:43:47;9;8;
60266;PMS5003;46125;61.360;-149.532;2023-08-06T07:46:15;14;11;
60266;PMS5003;46125;61.360;-149.532;2023-08-06T07:48:44;9;8;
60266;PMS5003;46125;61.360;-149.532;2023-08-06T07:51:12;9;8;
60266;PMS5003;46125;61.360;-149.532;2023-08-06T07:53:40;57;53;
60266;PMS5003;46125;61.360;-149.532;2023-08-06T07:56:08;47;42;
60266;PMS5003;46125;61.360;-149.532;2023-08-06T07:58:37;34;30;
60266;PMS5003;46125;61.360;-149.532;2023-08-06T08:01:06;13;13;
60266;PMS5003;46125;61.360;-149.532;2023-08-06T08:03:34;9;9;
60266;PMS5003;46125;61.360;-149.532;2023-08-06T08:06:03;9;8;
60266;PMS5003;46125;61.360;-149.532;2023-08-06T08:08:31;9;9;
60266;PMS5003;46125;61.360;-149.532;2023-08-06T08:11:00;11;9;
60266;PMS5003;46125;61.360;-149.532;2023-08-06T08:13:28;7;7;
60266;PMS5003;46125;61.360;-149.532;2023-08-06T08:15:57;6;6;
60266;PMS5003;46125;61.360;-149.532;2023-08-06T08:18:26;10;8;
60266;PMS5003;46125;61.360;-149.532;2023-08-06T08:20:54;10;8;
60266;PMS5003;46125;61.360;-149.532;2023-08-06T08:23:23;11;9;
60266;PMS5003;46125;61.360;-149.532;2023-08-06T08:25:51;13;13;
60266;PMS5003;46125;61.360;-149.532;2023-08-06T08:28:19;9;9;
60266;PMS5003;46125;61.360;-149.532;2023-08-06T08:30:48;8;8;
60266;PMS5003;46125;61.360;-149.532;2023-08-06T08:33:17;8;8;
60266;PMS5003;46125;61.360;-149.532;2023-08-06T08:35:45;9;9;
60266;PMS5003;46125;61.360;-149.532;2023-08-06T08:38:13;10;7;
60266;PMS5003;46125;61.360;-149.532;2023-08-06T08:40:43;9;9;
60266;PMS5003;46125;61.360;-149.532;2023-08-06T08:43:13;11;9;
60266;PMS5003;46125;61.360;-149.532;2023-08-06T08:45:42;8;8;
60266;PMS5003;46125;61.360;-149.532;2023-08-06T08:48:14;10;8;
60266;PMS5003;46125;61.360;-149.532;2023-08-06T08:50:44;8;8;
60266;PMS5003;46125;61.360;-149.532;2023-08-06T08:53:14;10;10;
60266;PMS5003;46125;61.360;-149.532;2023-08-06T08:55:46;10;9;
60266;PMS5003;46125;61.360;-149.532;2023-08-06T08:58:15;10;8;
60266;PMS5003;46125;61.360;-149.532;2023-08-06T09:00:45;12;10;
60266;PMS5003;46125;61.360;-149.532;2023-08-06T09:03:14;12;10;
60266;PMS5003;46125;61.360;-149.532;2023-08-06T09:05:44;13;11;
60266;PMS5003;46125;61.360;-149.532;2023-08-06T09:08:17;10;10;
60266;PMS5003;46125;61.360;-149.532;2023-08-06T09:10:48;12;9;
60266;PMS5003;46125;61.360;-149.532;2023-08-06T09:13:16;7;7;
60266;PMS5003;46125;61.360;-149.532;2023-08-06T09:15:45;8;7;
60266;PMS5003;46125;61.360;-149.532;2023-08-06T09:18:13;12;11;
60266;PMS5003;46125;61.360;-149.532;2023-08-06T09:20:42;13;9;
60266;PMS5003;46125;61.360;-149.532;2023-08-06T09:23:10;13;11;
60266;PMS5003;46125;61.360;-149.532;2023-08-06T09:25:39;11;9;
60266;PMS5003;46125;61.360;-149.532;2023-08-06T09:28:07;10;8;
60266;PMS5003;46125;61.360;-149.532;2023-08-06T09:30:36;8;6;
60266;PMS5003;46125;61.360;-149.532;2023-08-06T09:33:08;12;12;
60266;PMS5003;46125;61.360;-149.532;2023-08-06T09:35:37;9;9;
60266;PMS5003;46125;61.360;-149.532;2023-08-06T09:38:05;12;11;
60266;PMS5003;46125;61.360;-149.532;2023-08-06T09:40:35;10;10;
60266;PMS5003;46125;61.360;-149.532;2023-08-06T09:43:04;8;7;
60266;PMS5003;46125;61.360;-149.532;2023-08-06T09:45:34;8;8;
60266;PMS5003;46125;61.360;-149.532;2023-08-06T09:48:03;10;9;
60266;PMS5003;46125;61.360;-149.532;2023-08-06T09:50:33;8;7;
60266;PMS5003;46125;61.360;-149.532;2023-08-06T09:53:03;12;11;
60266;PMS5003;46125;61.360;-149.532;2023-08-06T09:55:33;9;8;
60266;PMS5003;46125;61.360;-149.532;2023-08-06T09:58:01;8;7;
60266;PMS5003;46125;61.360;-149.532;2023-08-06T10:00:30;13;12;
60266;PMS5003;46125;61.360;-149.532;2023-08-06T10:03:00;9;9;
60266;PMS5003;46125;61.360;-149.532;2023-08-06T10:05:29;11;9;
60266;PMS5003;46125;61.360;-149.532;2023-08-06T10:08:00;8;7;
60266;PMS5003;46125;61.360;-149.532;2023-08-06T10:10:30;11;8;
60266;PMS5003;46125;61.360;-149.532;2023-08-06T10:12:59;9;8;
60266;PMS5003;46125;61.360;-149.532;2023-08-06T10:15:28;9;8;
60266;PMS5003;46125;61.360;-149.532;2023-08-06T10:17:59;11;8;
60266;PMS5003;46125;61.360;-149.532;2023-08-06T10:20:33;11;8;
60266;PMS5003;46125;61.360;-149.532;2023-08-06T10:23:02;11;10;
60266;PMS5003;46125;61.360;-149.532;2023-08-06T10:25:32;11;10;
60266;PMS5003;46125;61.360;-149.532;2023-08-06T10:28:07;6;6;
60266;PMS5003;46125;61.360;-149.532;2023-08-06T10:30:41;10;9;
60266;PMS5003;46125;61.360;-149.532;2023-08-06T10:33:10;9;9;
60266;PMS5003;46125;61.360;-149.532;2023-08-06T10:35:41;11;11;
60266;PMS5003;46125;61.360;-149.532;2023-08-06T10:38:11;11;11;
60266;PMS5003;46125;61.360;-149.532;2023-08-06T10:40:41;10;9;
60266;PMS5003;46125;61.360;-149.532;2023-08-06T10:43:25;11;9;
60266;PMS5003;46125;61.360;-149.532;2023-08-06T10:45:55;14;10;
60266;PMS5003;46125;61.360;-149.532;2023-08-06T10:48:30;15;10;
60266;PMS5003;46125;61.360;-149.532;2023-08-06T10:51:01;11;10;
60266;PMS5003;46125;61.360;-149.532;2023-08-06T10:53:30;7;6;
60266;PMS5003;46125;61.360;-149.532;2023-08-06T10:55:59;10;8;
60266;PMS5003;46125;61.360;-149.532;2023-08-06T10:58:31;13;9;
60266;PMS5003;46125;61.360;-149.532;2023-08-06T11:00:59;9;9;
60266;PMS5003;46125;61.360;-149.532;2023-08-06T11:03:28;12;10;
60266;PMS5003;46125;61.360;-149.532;2023-08-06T11:05:56;10;10;
60266;PMS5003;46125;61.360;-149.532;2023-08-06T11:08:25;10;9;
60266;PMS5003;46125;61.360;-149.532;2023-08-06T11:10:54;10;9;
60266;PMS5003;46125;61.360;-149.532;2023-08-06T11:13:34;11;10;
60266;PMS5003;46125;61.360;-149.532;2023-08-06T11:16:03;13;10;
60266;PMS5003;46125;61.360;-149.532;2023-08-06T11:18:31;12;12;
60266;PMS5003;46125;61.360;-149.532;2023-08-06T11:21:00;10;8;
60266;PMS5003;46125;61.360;-149.532;2023-08-06T11:23:28;9;9;
60266;PMS5003;46125;61.360;-149.532;2023-08-06T11:25:57;12;11;
60266;PMS5003;46125;61.360;-149.532;2023-08-06T11:28:25;7;7;
60266;PMS5003;46125;61.360;-149.532;2023-08-06T11:30:54;15;12;
60266;PMS5003;46125;61.360;-149.532;2023-08-06T11:33:23;16;11;
60266;PMS5003;46125;61.360;-149.532;2023-08-06T11:35:53;11;11;
60266;PMS5003;46125;61.360;-149.532;2023-08-06T11:38:24;9;8;
60266;PMS5003;46125;61.360;-149.532;2023-08-06T11:40:53;9;9;
60266;PMS5003;46125;61.360;-149.532;2023-08-06T11:43:22;13;11;
60266;PMS5003;46125;61.360;-149.532;2023-08-06T11:45:50;10;9;
60266;PMS5003;46125;61.360;-149.532;2023-08-06T11:48:18;11;10;
60266;PMS5003;46125;61.360;-149.532;2023-08-06T11:50:47;13;11;
60266;PMS5003;46125;61.360;-149.532;2023-08-06T11:53:15;12;9;
60266;PMS5003;46125;61.360;-149.532;2023-08-06T11:55:44;10;8;
60266;PMS5003;46125;61.360;-149.532;2023-08-06T11:58:12;11;10;
60266;PMS5003;46125;61.360;-149.532;2023-08-06T12:00:44;9;9;
60266;PMS5003;46125;61.360;-149.532;2023-08-06T12:03:13;10;10;
60266;PMS5003;46125;61.360;-149.532;2023-08-06T12:05:41;8;8;
60266;PMS5003;46125;61.360;-149.532;2023-08-06T12:08:12;7;7;
60266;PMS5003;46125;61.360;-149.532;2023-08-06T12:10:41;11;10;
60266;PMS5003;46125;61.360;-149.532;2023-08-06T12:13:09;11;10;
60266;PMS5003;46125;61.360;-149.532;2023-08-06T12:15:38;9;9;
60266;PMS5003;46125;61.360;-149.532;2023-08-06T12:18:06;11;10;
60266;PMS5003;46125;61.360;-149.532;2023-08-06T12:20:35;9;9;
60266;PMS5003;46125;61.360;-149.532;2023-08-06T12:23:03;10;8;
60266;PMS5003;46125;61.360;-149.532;2023-08-06T12:25:32;11;9;
60266;PMS5003;46125;61.360;-149.532;2023-08-06T12:28:01;9;8;
60266;PMS5003;46125;61.360;-149.532;2023-08-06T12:30:29;10;10;
60266;PMS5003;46125;61.360;-149.532;2023-08-06T12:32:57;13;11;
60266;PMS5003;46125;61.360;-149.532;2023-08-06T12:35:26;10;9;
60266;PMS5003;46125;61.360;-149.532;2023-08-06T12:37:55;14;11;
60266;PMS5003;46125;61.360;-149.532;2023-08-06T12:40:25;10;8;
60266;PMS5003;46125;61.360;-149.532;2023-08-06T12:42:53;10;10;
60266;PMS5003;46125;61.360;-149.532;2023-08-06T12:45:22;12;10;
60266;PMS5003;46125;61.360;-149.532;2023-08-06T12:47:50;14;10;
60266;PMS5003;46125;61.360;-149.532;2023-08-06T12:50:18;9;8;
60266;PMS5003;46125;61.360;-149.532;2023-08-06T12:52:47;10;8;
60266;PMS5003;46125;61.360;-149.532;2023-08-06T12:55:15;13;10;
60266;PMS5003;46125;61.360;-149.532;2023-08-06T12:57:43;12;10;
60266;PMS5003;46125;61.360;-149.532;2023-08-06T13:00:12;7;7;
60266;PMS5003;46125;61.360;-149.532;2023-08-06T13:02:40;12;11;
60266;PMS5003;46125;61.360;-149.532;2023-08-06T13:05:08;9;7;
60266;PMS5003;46125;61.360;-149.532;2023-08-06T13:07:37;8;8;
60266;PMS5003;46125;61.360;-149.532;2023-08-06T13:10:05;12;10;
60266;PMS5003;46125;61.360;-149.532;2023-08-06T13:12:34;10;9;
60266;PMS5003;46125;61.360;-149.532;2023-08-06T13:15:02;11;10;
60266;PMS5003;46125;61.360;-149.532;2023-08-06T13:17:32;12;10;
60266;PMS5003;46125;61.360;-149.532;2023-08-06T13:20:00;10;10;
60266;PMS5003;46125;61.360;-149.532;2023-08-06T13:22:29;8;8;
60266;PMS5003;46125;61.360;-149.532;2023-08-06T13:24:57;9;9;
60266;PMS5003;46125;61.360;-149.532;2023-08-06T13:27:26;10;9;
60266;PMS5003;46125;61.360;-149.532;2023-08-06T13:29:54;11;10;
60266;PMS5003;46125;61.360;-149.532;2023-08-06T13:32:23;8;8;
60266;PMS5003;46125;61.360;-149.532;2023-08-06T13:34:51;8;8;
60266;PMS5003;46125;61.360;-149.532;2023-08-06T13:37:19;10;9;
60266;PMS5003;46125;61.360;-149.532;2023-08-06T13:39:48;8;8;
60266;PMS5003;46125;61.360;-149.532;2023-08-06T13:42:16;10;9;
60266;PMS5003;46125;61.360;-149.532;2023-08-06T13:44:44;13;10;
60266;PMS5003;46125;61.360;-149.532;2023-08-06T13:47:13;10;10;
60266;PMS5003;46125;61.360;-149.532;2023-08-06T13:49:41;10;10;
60266;PMS5003;46125;61.360;-149.532;2023-08-06T13:52:10;14;10;
60266;PMS5003;46125;61.360;-149.532;2023-08-06T13:54:38;10;8;
60266;PMS5003;46125;61.360;-149.532;2023-08-06T13:57:07;14;9;
60266;PMS5003;46125;61.360;-149.532;2023-08-06T13:59:35;11;9;
60266;PMS5003;46125;61.360;-149.532;2023-08-06T14:02:04;11;11;
60266;PMS5003;46125;61.360;-149.532;2023-08-06T14:04:33;7;7;
60266;PMS5003;46125;61.360;-149.532;2023-08-06T14:07:02;9;9;
60266;PMS5003;46125;61.360;-149.532;2023-08-06T14:09:30;9;7;
60266;PMS5003;46125;61.360;-149.532;2023-08-06T14:11:58;9;8;
60266;PMS5003;46125;61.360;-149.532;2023-08-06T14:14:27;6;6;
60266;PMS5003;46125;61.360;-149.532;2023-08-06T14:16:55;8;7;
60266;PMS5003;46125;61.360;-149.532;2023-08-06T14:19:24;12;8;
60266;PMS5003;46125;61.360;-149.532;2023-08-06T14:21:52;9;8;
60266;PMS5003;46125;61.360;-149.532;2023-08-06T14:24:21;10;9;
60266;PMS5003;46125;61.360;-149.532;2023-08-06T14:26:49;12;11;
60266;PMS5003;46125;61.360;-149.532;2023-08-06T14:29:18;8;7;
60266;PMS5003;46125;61.360;-149.532;2023-08-06T14:31:46;7;7;
60266;PMS5003;46125;61.360;-149.532;2023-08-06T14:34:15;5;5;
60266;PMS5003;46125;61.360;-149.532;2023-08-06T14:36:43;9;8;
60266;PMS5003;46125;61.360;-149.532;2023-08-06T14:39:12;12;9;
60266;PMS5003;46125;61.360;-149.532;2023-08-06T14:41:41;9;9;
60266;PMS5003;46125;61.360;-149.532;2023-08-06T14:44:09;8;8;
60266;PMS5003;46125;61.360;-149.532;2023-08-06T14:46:37;9;8;
60266;PMS5003;46125;61.360;-149.532;2023-08-06T14:49:06;8;8;
60266;PMS5003;46125;61.360;-149.532;2023-08-06T14:51:34;9;8;
60266;PMS5003;46125;61.360;-149.532;2023-08-06T14:54:02;7;7;
60266;PMS5003;46125;61.360;-149.532;2023-08-06T14:56:31;9;7;
60266;PMS5003;46125;61.360;-149.532;2023-08-06T14:58:59;9;8;
60266;PMS5003;46125;61.360;-149.532;2023-08-06T15:01:27;8;7;
60266;PMS5003;46125;61.360;-149.532;2023-08-06T15:03:56;7;7;
60266;PMS5003;46125;61.360;-149.532;2023-08-06T15:06:24;8;7;
60266;PMS5003;46125;61.360;-149.532;2023-08-06T15:08:53;6;6;
60266;PMS5003;46125;61.360;-149.532;2023-08-06T15:11:21;9;8;
60266;PMS5003;46125;61.360;-149.532;2023-08-06T15:13:50;8;8;
60266;PMS5003;46125;61.360;-149.532;2023-08-06T15:16:18;10;7;
60266;PMS5003;46125;61.360;-149.532;2023-08-06T15:18:47;9;8;
60266;PMS5003;46125;61.360;-149.532;2023-08-06T15:21:15;6;6;
60266;PMS5003;46125;61.360;-149.532;2023-08-06T15:23:44;8;8;
60266;PMS5003;46125;61.360;-149.532;2023-08-06T15:26:12;7;6;
60266;PMS5003;46125;61.360;-149.532;2023-08-06T15:28:41;7;7;
60266;PMS5003;46125;61.360;-149.532;2023-08-06T15:31:09;12;8;
60266;PMS5003;46125;61.360;-149.532;2023-08-06T15:33:37;8;7;
60266;PMS5003;46125;61.360;-149.532;2023-08-06T15:36:06;7;7;
60266;PMS5003;46125;61.360;-149.532;2023-08-06T15:38:35;10;8;
60266;PMS5003;46125;61.360;-149.532;2023-08-06T15:41:03;10;9;
60266;PMS5003;46125;61.360;-149.532;2023-08-06T15:43:32;6;6;
60266;PMS5003;46125;61.360;-149.532;2023-08-06T15:46:01;7;7;
60266;PMS5003;46125;61.360;-149.532;2023-08-06T15:48:29;6;6;
60266;PMS5003;46125;61.360;-149.532;2023-08-06T15:50:58;12;9;
60266;PMS5003;46125;61.360;-149.532;2023-08-06T15:53:26;7;6;